Time;durP1;ratioP1;P1;durP2;ratioP2;P2;SDS_P1;SDS_P2;PMS_P1;PMS_P2;Temp;Humidity;BMP_temperature;BMP_pressure;BME280_temperature;BME280_humidity;BME280_pressure;Samples;Min_cycle;Max_cycle;Signal;HPM_P1;HPM_P2
2021/04/24 00:01:30;;;;;;;18.05;6.30;;;;;;;;;;5132463;27;20057;-82
2021/04/24 00:03:57;;;;;;;15.65;5.22;;;;;;;;;;5132472;27;20043;-81
2021/04/24 00:06:23;;;;;;;13.65;5.50;;;;;;;;;;5132313;27;20109;-82
2021/04/24 00:08:50;;;;;;;11.88;5.53;;;;;;;;;;5133328;27;20466;-82
2021/04/24 00:11:16;;;;;;;11.85;5.57;;;;;;;;;;5132230;27;20035;-82
2021/04/24 00:13:42;;;;;;;11.55;5.20;;;;;;;;;;5132134;27;20031;-83
2021/04/24 00:16:08;;;;;;;13.95;5.38;;;;;;;;;;5115046;28;20048;-82
2021/04/24 00:18:34;;;;;;;15.40;5.85;;;;;;;;;;5133262;27;20054;-81
2021/04/24 00:21:00;;;;;;;14.93;6.28;;;;;;;;;;5132092;27;20534;-82
2021/04/24 00:23:26;;;;;;;10.93;5.28;;;;;;;;;;5132224;27;20043;-82
2021/04/24 00:25:52;;;;;;;15.88;5.45;;;;;;;;;;5131886;27;20455;-83
2021/04/24 00:28:18;;;;;;;13.50;4.82;;;;;;;;;;5133114;27;20334;-82
2021/04/24 00:30:46;;;;;;;13.77;5.50;;;;;;;;;;5133183;27;20039;-83
2021/04/24 00:33:12;;;;;;;10.98;4.72;;;;;;;;;;5115092;28;20042;-83
2021/04/24 00:35:38;;;;;;;15.40;5.47;;;;;;;;;;5131795;28;20064;-83
2021/04/24 00:38:04;;;;;;;12.35;5.47;;;;;;;;;;5131789;28;20035;-83
2021/04/24 00:40:30;;;;;;;14.30;5.82;;;;;;;;;;5114869;28;20054;-83
2021/04/24 00:42:56;;;;;;;15.18;5.93;;;;;;;;;;5131839;28;20043;-83
2021/04/24 00:45:23;;;;;;;11.65;5.30;;;;;;;;;;5133025;27;20096;-83
2021/04/24 00:47:49;;;;;;;14.93;5.65;;;;;;;;;;5114718;28;20458;-83
2021/04/24 00:50:16;;;;;;;14.48;5.43;;;;;;;;;;5097999;28;20063;-83
2021/04/24 00:52:42;;;;;;;16.40;6.22;;;;;;;;;;5131752;28;20039;-83
2021/04/24 00:55:09;;;;;;;13.88;5.85;;;;;;;;;;5131756;28;20035;-83
2021/04/24 00:57:35;;;;;;;15.05;7.45;;;;;;;;;;5131498;28;20088;-83
2021/04/24 01:00:01;;;;;;;14.27;5.75;;;;;;;;;;5114632;28;20039;-83
2021/04/24 01:02:27;;;;;;;18.75;6.18;;;;;;;;;;5131777;28;20038;-83
2021/04/24 01:04:53;;;;;;;12.40;5.53;;;;;;;;;;5131622;28;20123;-83
2021/04/24 01:07:19;;;;;;;12.10;5.50;;;;;;;;;;5132712;27;20112;-83
2021/04/24 01:09:45;;;;;;;14.48;5.68;;;;;;;;;;5131604;28;20096;-83
2021/04/24 01:12:11;;;;;;;14.10;5.68;;;;;;;;;;5131543;28;20046;-84
2021/04/24 01:14:38;;;;;;;11.27;4.82;;;;;;;;;;5114650;28;20027;-83
2021/04/24 01:17:04;;;;;;;12.82;4.60;;;;;;;;;;5132699;27;20385;-84
2021/04/24 01:19:30;;;;;;;12.05;5.25;;;;;;;;;;5131423;28;20041;-83
2021/04/24 01:22:05;;;;;;;13.23;5.03;;;;;;;;;;5131608;28;20482;-84
2021/04/24 01:24:31;;;;;;;12.70;5.53;;;;;;;;;;5132552;27;20080;-84
2021/04/24 01:26:57;;;;;;;13.70;5.20;;;;;;;;;;5131533;28;20559;-84
2021/04/24 01:29:23;;;;;;;13.25;6.05;;;;;;;;;;5131443;28;20104;-83
2021/04/24 01:31:50;;;;;;;12.88;5.25;;;;;;;;;;5131385;28;20406;-84
2021/04/24 01:34:16;;;;;;;14.73;6.10;;;;;;;;;;5132587;27;20039;-84
2021/04/24 01:36:42;;;;;;;15.25;6.07;;;;;;;;;;5131595;27;20047;-84
2021/04/24 01:39:08;;;;;;;11.93;5.20;;;;;;;;;;5117815;27;20047;-83
2021/04/24 01:41:34;;;;;;;12.45;5.47;;;;;;;;;;5136100;27;20035;-83
2021/04/24 01:44:00;;;;;;;12.93;5.93;;;;;;;;;;5135035;27;20039;-82
2021/04/24 01:46:26;;;;;;;14.20;5.35;;;;;;;;;;5134960;27;20043;-83
2021/04/24 01:48:53;;;;;;;11.55;5.18;;;;;;;;;;5134902;27;20111;-83
2021/04/24 01:51:19;;;;;;;12.07;5.45;;;;;;;;;;5136029;27;20039;-84
2021/04/24 01:53:45;;;;;;;12.90;5.13;;;;;;;;;;5134687;27;20061;-84
2021/04/24 01:56:11;;;;;;;13.38;5.93;;;;;;;;;;5134619;27;20039;-83
2021/04/24 01:58:37;;;;;;;11.52;5.05;;;;;;;;;;5135833;27;20035;-83
2021/04/24 02:01:04;;;;;;;15.80;5.78;;;;;;;;;;5134470;27;20091;-83
2021/04/24 02:03:30;;;;;;;14.80;5.53;;;;;;;;;;5134667;27;20031;-84
2021/04/24 02:05:57;;;;;;;16.02;6.75;;;;;;;;;;5134544;27;20122;-84
2021/04/24 02:08:26;;;;;;;12.23;5.95;;;;;;;;;;5117352;27;20061;-83
2021/04/24 02:10:53;;;;;;;13.02;5.35;;;;;;;;;;5134426;27;20114;-83
2021/04/24 02:13:20;;;;;;;13.07;4.90;;;;;;;;;;5134415;27;20107;-84
2021/04/24 02:15:46;;;;;;;15.75;5.47;;;;;;;;;;5134312;27;20035;-83
2021/04/24 02:18:12;;;;;;;14.18;5.95;;;;;;;;;;5134214;27;20063;-83
2021/04/24 02:20:40;;;;;;;15.25;6.30;;;;;;;;;;5117121;27;20035;-83
2021/04/24 02:23:06;;;;;;;15.13;5.55;;;;;;;;;;5135384;27;20041;-83
2021/04/24 02:25:32;;;;;;;17.05;5.30;;;;;;;;;;5134149;27;20041;-83
2021/04/24 02:27:58;;;;;;;13.30;5.85;;;;;;;;;;5134166;27;20027;-83
2021/04/24 02:30:24;;;;;;;16.80;6.47;;;;;;;;;;5135215;27;20066;-83
2021/04/24 02:32:50;;;;;;;15.25;5.85;;;;;;;;;;5133990;27;20100;-83
2021/04/24 02:35:18;;;;;;;13.52;5.38;;;;;;;;;;5116626;27;20482;-82
2021/04/24 02:37:44;;;;;;;12.65;5.82;;;;;;;;;;5133883;27;20046;-82
2021/04/24 02:40:11;;;;;;;14.85;5.80;;;;;;;;;;5116698;27;20045;-82
2021/04/24 02:42:37;;;;;;;13.27;5.72;;;;;;;;;;5133879;27;20466;-82
2021/04/24 02:45:05;;;;;;;12.05;5.47;;;;;;;;;;5116681;27;20075;-83
2021/04/24 02:47:32;;;;;;;15.18;5.70;;;;;;;;;;5117038;27;20080;-83
2021/04/24 02:49:58;;;;;;;11.50;4.93;;;;;;;;;;5115481;27;20054;-84
2021/04/24 02:52:24;;;;;;;16.80;5.93;;;;;;;;;;5134842;27;20423;-84
2021/04/24 02:54:50;;;;;;;17.95;5.95;;;;;;;;;;5116396;27;20063;-84
2021/04/24 02:57:16;;;;;;;13.75;5.50;;;;;;;;;;5116476;27;20145;-85
2021/04/24 02:59:42;;;;;;;13.88;6.05;;;;;;;;;;5133551;27;20470;-85
2021/04/24 03:02:08;;;;;;;15.70;5.97;;;;;;;;;;5133527;27;20031;-84
2021/04/24 03:04:34;;;;;;;14.27;5.38;;;;;;;;;;5133318;27;20061;-84
2021/04/24 03:07:00;;;;;;;15.32;6.60;;;;;;;;;;5116463;27;20031;-83
2021/04/24 03:09:29;;;;;;;13.70;5.75;;;;;;;;;;5133455;27;20452;-83
2021/04/24 03:11:55;;;;;;;18.15;6.15;;;;;;;;;;5133196;27;20110;-83
2021/04/24 03:14:21;;;;;;;12.80;5.43;;;;;;;;;;5134315;27;20038;-83
2021/04/24 03:16:48;;;;;;;17.10;5.68;;;;;;;;;;5133038;27;20035;-83
2021/04/24 03:19:13;;;;;;;18.10;6.18;;;;;;;;;;5115900;27;20031;-83
2021/04/24 03:21:40;;;;;;;14.30;6.05;;;;;;;;;;5132919;27;20050;-83
2021/04/24 03:24:06;;;;;;;17.55;6.25;;;;;;;;;;5134123;27;20056;-83
2021/04/24 03:26:32;;;;;;;15.15;6.03;;;;;;;;;;5132958;27;20031;-83
2021/04/24 03:28:58;;;;;;;15.30;5.70;;;;;;;;;;5134025;27;20035;-83
2021/04/24 03:31:24;;;;;;;17.92;5.90;;;;;;;;;;5132836;27;20065;-83
2021/04/24 03:33:51;;;;;;;17.23;6.75;;;;;;;;;;5115662;27;20058;-83
2021/04/24 03:36:17;;;;;;;12.15;5.20;;;;;;;;;;5132521;27;20402;-83
2021/04/24 03:38:43;;;;;;;14.32;6.10;;;;;;;;;;5132737;27;20039;-83
2021/04/24 03:41:09;;;;;;;17.52;5.63;;;;;;;;;;5132601;27;20237;-82
2021/04/24 03:43:35;;;;;;;16.08;6.10;;;;;;;;;;5132641;27;20050;-82
2021/04/24 03:46:01;;;;;;;14.25;5.90;;;;;;;;;;5133770;27;20061;-82
2021/04/24 03:48:27;;;;;;;16.75;5.82;;;;;;;;;;5132471;27;20037;-82
2021/04/24 03:50:53;;;;;;;12.88;5.97;;;;;;;;;;5132527;27;20087;-82
2021/04/24 03:53:19;;;;;;;17.13;6.07;;;;;;;;;;5133688;27;20074;-82
2021/04/24 03:55:46;;;;;;;14.85;6.13;;;;;;;;;;5132394;27;20404;-83
2021/04/24 03:58:12;;;;;;;12.95;5.20;;;;;;;;;;5132320;27;20164;-83
2021/04/24 04:00:38;;;;;;;13.98;6.05;;;;;;;;;;5131938;27;20375;-82
2021/04/24 04:03:05;;;;;;;13.40;5.40;;;;;;;;;;5115396;27;20039;-82
2021/04/24 04:05:35;;;;;;;14.23;5.13;;;;;;;;;;5132497;27;20462;-82
2021/04/24 04:08:01;;;;;;;16.13;6.25;;;;;;;;;;5132321;27;20034;-82
2021/04/24 04:10:27;;;;;;;17.27;5.95;;;;;;;;;;5133314;27;20087;-82
2021/04/24 04:12:53;;;;;;;14.93;5.80;;;;;;;;;;5115128;27;20084;-82
2021/04/24 04:15:20;;;;;;;16.88;6.20;;;;;;;;;;5132082;27;20063;-80
2021/04/24 04:17:53;;;;;;;14.48;5.18;;;;;;;;;;5133220;27;20122;-83
2021/04/24 04:20:19;;;;;;;13.70;5.75;;;;;;;;;;5114998;27;20489;-83
2021/04/24 04:22:45;;;;;;;15.23;5.28;;;;;;;;;;5132141;27;20479;-82
2021/04/24 04:25:11;;;;;;;13.10;5.43;;;;;;;;;;5132115;27;20118;-82
2021/04/24 04:27:39;;;;;;;15.45;6.15;;;;;;;;;;5133213;27;20035;-81
2021/04/24 04:30:06;;;;;;;11.75;5.13;;;;;;;;;;5131870;27;20470;-81
2021/04/24 04:32:33;;;;;;;15.43;5.50;;;;;;;;;;5115025;28;20039;-82
2021/04/24 04:35:00;;;;;;;13.95;5.95;;;;;;;;;;5132024;28;20398;-83
2021/04/24 04:37:26;;;;;;;13.48;5.72;;;;;;;;;;5132859;27;20054;-82
2021/04/24 04:39:52;;;;;;;12.85;4.78;;;;;;;;;;5133033;27;20043;-82
2021/04/24 04:42:18;;;;;;;15.65;5.40;;;;;;;;;;5131896;28;20068;-82
2021/04/24 04:44:44;;;;;;;12.95;5.22;;;;;;;;;;5131898;28;20088;-82
2021/04/24 04:47:10;;;;;;;13.55;5.85;;;;;;;;;;5131790;28;20035;-82
2021/04/24 04:49:36;;;;;;;13.60;5.15;;;;;;;;;;5114638;28;20418;-82
2021/04/24 04:52:02;;;;;;;15.43;5.20;;;;;;;;;;5131860;28;20039;-82
2021/04/24 04:54:29;;;;;;;13.02;4.80;;;;;;;;;;5131915;28;20035;-82
2021/04/24 04:56:55;;;;;;;14.45;6.15;;;;;;;;;;5131572;28;20371;-82
2021/04/24 04:59:21;;;;;;;13.57;5.93;;;;;;;;;;5131714;28;20428;-81
2021/04/24 05:01:47;;;;;;;15.15;5.68;;;;;;;;;;5131604;28;20047;-82
2021/04/24 05:04:13;;;;;;;16.30;6.20;;;;;;;;;;5131783;28;20031;-82
2021/04/24 05:06:39;;;;;;;19.50;6.82;;;;;;;;;;5132785;27;20076;-82
2021/04/24 05:09:05;;;;;;;25.13;7.15;;;;;;;;;;5133057;27;20039;-82
2021/04/24 05:11:31;;;;;;;23.50;6.97;;;;;;;;;;5114587;28;20035;-82
2021/04/24 05:13:57;;;;;;;24.27;7.47;;;;;;;;;;5135668;27;20071;-82
2021/04/24 05:16:23;;;;;;;20.92;7.03;;;;;;;;;;5135482;27;20058;-82
2021/04/24 05:18:49;;;;;;;21.33;6.07;;;;;;;;;;5136698;27;20514;-82
2021/04/24 05:21:15;;;;;;;19.83;7.15;;;;;;;;;;5136677;27;20046;-81
2021/04/24 05:23:41;;;;;;;17.65;6.65;;;;;;;;;;5136553;27;20114;-81
2021/04/24 05:26:07;;;;;;;14.23;5.57;;;;;;;;;;5135194;27;20042;-82
2021/04/24 05:28:33;;;;;;;17.15;6.00;;;;;;;;;;5135445;27;20078;-82
2021/04/24 05:30:59;;;;;;;17.13;6.00;;;;;;;;;;5135267;27;20039;-83
2021/04/24 05:33:25;;;;;;;14.35;5.40;;;;;;;;;;5136432;27;20478;-82
2021/04/24 05:35:53;;;;;;;12.38;5.70;;;;;;;;;;5136091;27;20051;-87
2021/04/24 05:38:19;;;;;;;20.13;6.93;;;;;;;;;;5118224;27;20084;-82
2021/04/24 05:40:45;;;;;;;15.98;5.60;;;;;;;;;;5134865;27;20478;-85
2021/04/24 05:43:11;;;;;;;11.98;5.72;;;;;;;;;;5134970;27;20035;-84
2021/04/24 05:45:37;;;;;;;15.35;5.53;;;;;;;;;;5135214;27;20196;-84
2021/04/24 05:48:03;;;;;;;13.77;5.68;;;;;;;;;;5118026;27;20112;-84
2021/04/24 05:50:29;;;;;;;15.68;5.65;;;;;;;;;;5134894;27;20073;-85
2021/04/24 05:52:55;;;;;;;13.82;6.18;;;;;;;;;;5135987;27;20031;-85
2021/04/24 05:55:21;;;;;;;11.73;5.53;;;;;;;;;;5134631;27;20070;-86
2021/04/24 05:57:47;;;;;;;11.93;5.78;;;;;;;;;;5134750;27;20063;-83
2021/04/24 06:00:14;;;;;;;11.90;5.68;;;;;;;;;;5117578;27;20465;-83
2021/04/24 06:02:40;;;;;;;11.73;5.57;;;;;;;;;;5134786;27;20039;-84
2021/04/24 06:05:08;;;;;;;13.65;6.38;;;;;;;;;;5134801;27;20039;-84
2021/04/24 06:07:34;;;;;;;14.13;6.28;;;;;;;;;;5134681;27;20083;-83
2021/04/24 06:10:00;;;;;;;14.38;6.72;;;;;;;;;;5134367;27;20107;-83
2021/04/24 06:12:26;;;;;;;13.07;5.85;;;;;;;;;;5117330;27;20062;-83
2021/04/24 06:14:52;;;;;;;12.55;5.95;;;;;;;;;;5117328;27;20482;-84
2021/04/24 06:17:18;;;;;;;13.63;5.93;;;;;;;;;;5135661;27;20065;-83
2021/04/24 06:19:44;;;;;;;10.23;5.80;;;;;;;;;;5117075;27;20035;-85
2021/04/24 06:22:10;;;;;;;13.80;5.60;;;;;;;;;;5135565;27;20057;-85
2021/04/24 06:24:36;;;;;;;10.20;5.70;;;;;;;;;;5134039;27;20039;-84
2021/04/24 06:27:02;;;;;;;11.57;6.00;;;;;;;;;;5134152;27;20034;-84
2021/04/24 06:29:28;;;;;;;10.45;5.55;;;;;;;;;;5135305;27;20474;-84
2021/04/24 06:31:54;;;;;;;11.82;5.55;;;;;;;;;;5134050;27;20043;-85
2021/04/24 06:34:20;;;;;;;11.63;5.50;;;;;;;;;;5135230;27;20389;-84
2021/04/24 06:36:48;;;;;;;11.50;5.88;;;;;;;;;;5133740;27;20104;-84
2021/04/24 06:39:14;;;;;;;10.95;5.20;;;;;;;;;;5133848;27;20332;-84
2021/04/24 06:41:40;;;;;;;12.32;5.10;;;;;;;;;;5135009;27;20046;-84
2021/04/24 06:44:06;;;;;;;10.77;5.05;;;;;;;;;;5134016;27;20043;-85
2021/04/24 06:46:32;;;;;;;11.20;4.97;;;;;;;;;;5134892;27;20035;-85
2021/04/24 06:48:58;;;;;;;8.88;5.07;;;;;;;;;;5133793;27;20401;-85
2021/04/24 06:51:24;;;;;;;9.10;4.78;;;;;;;;;;5133722;27;20039;-83
2021/04/24 06:53:51;;;;;;;11.63;4.88;;;;;;;;;;5133603;27;20497;-84
2021/04/24 06:56:17;;;;;;;9.55;4.40;;;;;;;;;;5133588;27;20046;-82
2021/04/24 06:58:44;;;;;;;9.88;4.53;;;;;;;;;;5133702;27;20039;-83
2021/04/24 07:01:10;;;;;;;10.10;4.80;;;;;;;;;;5134630;27;20402;-84
2021/04/24 07:03:37;;;;;;;11.07;4.32;;;;;;;;;;5116639;27;20435;-84
2021/04/24 07:06:03;;;;;;;9.93;4.85;;;;;;;;;;5116365;27;20113;-84
2021/04/24 07:08:29;;;;;;;12.30;5.00;;;;;;;;;;5133245;27;20117;-84
2021/04/24 07:10:55;;;;;;;9.73;4.50;;;;;;;;;;5133354;27;20483;-83
2021/04/24 07:13:21;;;;;;;11.63;4.28;;;;;;;;;;5133268;27;20114;-84
2021/04/24 07:15:47;;;;;;;9.82;4.18;;;;;;;;;;5134384;27;20081;-83
2021/04/24 07:18:13;;;;;;;11.55;3.72;;;;;;;;;;5133137;27;20039;-82
2021/04/24 07:20:39;;;;;;;11.43;3.63;;;;;;;;;;5134277;27;20440;-83
2021/04/24 07:23:05;;;;;;;8.05;3.45;;;;;;;;;;5116181;27;20114;-84
2021/04/24 07:25:31;;;;;;;8.18;3.33;;;;;;;;;;5134217;27;20106;-83
2021/04/24 07:27:57;;;;;;;8.25;3.60;;;;;;;;;;5134017;27;20031;-84
2021/04/24 07:30:23;;;;;;;6.80;3.22;;;;;;;;;;5134114;27;20045;-84
2021/04/24 07:32:49;;;;;;;7.10;3.30;;;;;;;;;;5115947;27;20038;-84
2021/04/24 07:35:15;;;;;;;7.70;2.90;;;;;;;;;;5132066;27;20035;-83
2021/04/24 07:37:42;;;;;;;7.97;3.15;;;;;;;;;;5115849;27;21164;-83
2021/04/24 07:40:09;;;;;;;9.52;3.33;;;;;;;;;;5132811;27;20035;-83
2021/04/24 07:42:35;;;;;;;9.35;3.38;;;;;;;;;;5133998;27;20118;-84
2021/04/24 07:45:01;;;;;;;11.15;3.40;;;;;;;;;;5132690;27;20039;-84
2021/04/24 07:47:27;;;;;;;9.23;3.15;;;;;;;;;;5132541;27;20466;-83
2021/04/24 07:49:53;;;;;;;12.15;3.30;;;;;;;;;;5115465;27;20031;-84
2021/04/24 07:52:20;;;;;;;8.25;3.05;;;;;;;;;;5133728;27;20489;-84
2021/04/24 07:54:46;;;;;;;9.57;3.33;;;;;;;;;;5133684;27;20039;-83
2021/04/24 07:57:12;;;;;;;11.88;3.25;;;;;;;;;;5132381;27;20069;-84
2021/04/24 07:59:38;;;;;;;12.52;3.50;;;;;;;;;;5132518;27;20035;-83
2021/04/24 08:02:04;;;;;;;10.77;3.35;;;;;;;;;;5132489;27;20046;-86
2021/04/24 08:04:30;;;;;;;12.43;3.33;;;;;;;;;;5132236;27;20494;-84
2021/04/24 08:06:56;;;;;;;10.43;3.00;;;;;;;;;;5132171;27;20031;-84
2021/04/24 08:09:23;;;;;;;11.38;3.53;;;;;;;;;;5133445;27;20042;-84
2021/04/24 08:11:49;;;;;;;7.15;3.13;;;;;;;;;;5132305;27;20066;-84
2021/04/24 08:14:15;;;;;;;11.32;3.90;;;;;;;;;;5132064;27;20045;-86
2021/04/24 08:16:41;;;;;;;8.57;4.00;;;;;;;;;;5115069;28;20416;-86
2021/04/24 08:19:07;;;;;;;10.93;3.50;;;;;;;;;;5133306;27;20027;-86
2021/04/24 08:21:33;;;;;;;11.73;3.30;;;;;;;;;;5131971;27;20114;-87
2021/04/24 08:24:01;;;;;;;9.95;3.65;;;;;;;;;;5132045;27;20066;-84
2021/04/24 08:26:27;;;;;;;11.15;3.03;;;;;;;;;;5131821;27;20074;-84
2021/04/24 08:28:53;;;;;;;12.32;3.55;;;;;;;;;;5133151;27;20110;-85
2021/04/24 08:31:19;;;;;;;9.93;3.70;;;;;;;;;;5133223;27;20039;-86
2021/04/24 08:33:46;;;;;;;10.07;3.10;;;;;;;;;;5131669;27;20068;-84
2021/04/24 08:36:12;;;;;;;10.18;3.20;;;;;;;;;;5131628;28;20075;-83
2021/04/24 08:38:38;;;;;;;10.15;3.33;;;;;;;;;;5114848;28;20039;-83
2021/04/24 08:41:04;;;;;;;12.45;3.47;;;;;;;;;;5131448;28;20042;-83
2021/04/24 08:43:31;;;;;;;7.32;3.58;;;;;;;;;;5131562;28;20523;-83
2021/04/24 08:45:57;;;;;;;11.73;3.13;;;;;;;;;;5131590;27;20135;-84
2021/04/24 08:48:23;;;;;;;7.30;3.63;;;;;;;;;;5134996;27;20035;-84
2021/04/24 08:50:49;;;;;;;10.38;3.30;;;;;;;;;;5136826;27;20042;-83
2021/04/24 08:53:17;;;;;;;8.90;2.78;;;;;;;;;;5137023;27;20529;-83
2021/04/24 08:55:47;;;;;;;8.75;3.15;;;;;;;;;;5135939;27;20034;-82
2021/04/24 08:58:13;;;;;;;8.23;2.70;;;;;;;;;;5135704;27;20042;-82
2021/04/24 09:00:40;;;;;;;8.40;3.10;;;;;;;;;;5135552;27;20039;-83
2021/04/24 09:03:06;;;;;;;10.10;2.80;;;;;;;;;;5135630;27;20054;-83
2021/04/24 09:05:33;;;;;;;8.63;2.92;;;;;;;;;;5133839;27;20375;-84
2021/04/24 09:07:59;;;;;;;8.95;3.03;;;;;;;;;;5135090;27;20035;-83
2021/04/24 09:10:25;;;;;;;9.10;3.28;;;;;;;;;;5136666;27;20431;-83
2021/04/24 09:12:51;;;;;;;8.32;3.03;;;;;;;;;;5118556;27;20043;-83
2021/04/24 09:15:25;;;;;;;10.45;3.30;;;;;;;;;;5135315;27;20035;-82
2021/04/24 09:18:00;;;;;;;10.23;3.08;;;;;;;;;;5136428;27;20035;-82
2021/04/24 09:20:27;;;;;;;8.07;3.10;;;;;;;;;;5135947;27;20039;-83
2021/04/24 09:22:58;;;;;;;10.27;2.92;;;;;;;;;;5135350;27;20039;-82
2021/04/24 09:25:33;;;;;;;10.02;3.08;;;;;;;;;;5136597;27;20039;-83
2021/04/24 09:28:00;;;;;;;8.55;2.80;;;;;;;;;;5136255;27;20061;-82
2021/04/24 09:30:32;;;;;;;10.23;3.10;;;;;;;;;;5136385;27;20095;-83
2021/04/24 09:33:09;;;;;;;8.43;3.03;;;;;;;;;;5135188;27;20065;-83
2021/04/24 09:35:55;;;;;;;10.38;3.05;;;;;;;;;;5136184;27;20042;-82
2021/04/24 09:38:24;;;;;;;10.63;2.92;;;;;;;;;;5134946;27;20045;-83
2021/04/24 09:41:10;;;;;;;8.32;2.60;;;;;;;;;;5136104;27;20040;-82
2021/04/24 09:43:58;;;;;;;8.10;2.92;;;;;;;;;;5136203;27;20114;-83
2021/04/24 09:46:25;;;;;;;11.02;3.10;;;;;;;;;;5134755;27;20035;-84
2021/04/24 09:48:51;;;;;;;8.93;2.72;;;;;;;;;;5117807;27;20501;-82
2021/04/24 09:51:17;;;;;;;7.35;2.30;;;;;;;;;;5134820;27;20042;-82
2021/04/24 09:53:53;;;;;;;10.00;2.47;;;;;;;;;;5136191;27;20062;-82
2021/04/24 09:56:19;;;;;;;6.80;2.17;;;;;;;;;;5135877;27;20106;-82
2021/04/24 09:58:45;;;;;;;6.30;2.50;;;;;;;;;;5134319;27;20234;-83
2021/04/24 10:01:21;;;;;;;8.18;2.40;;;;;;;;;;5135923;27;20043;-82
2021/04/24 10:03:48;;;;;;;8.60;2.25;;;;;;;;;;5134689;27;20031;-82
2021/04/24 10:06:34;;;;;;;7.05;1.80;;;;;;;;;;5134816;27;20066;-82
2021/04/24 10:09:12;;;;;;;5.70;1.75;;;;;;;;;;5117554;27;20043;-82
2021/04/24 10:11:38;;;;;;;6.13;2.13;;;;;;;;;;5135663;27;20539;-83
2021/04/24 10:14:05;;;;;;;9.38;2.00;;;;;;;;;;5134464;27;20043;-83
2021/04/24 10:16:57;;;;;;;6.05;1.83;;;;;;;;;;5134323;27;20474;-83
2021/04/24 10:19:23;;;;;;;3.60;1.58;;;;;;;;;;5131450;27;20051;-83
2021/04/24 10:21:49;;;;;;;3.92;1.67;;;;;;;;;;5134348;27;20065;-83
2021/04/24 10:24:15;;;;;;;6.43;1.67;;;;;;;;;;5117228;27;20470;-84
2021/04/24 10:26:43;;;;;;;5.30;1.63;;;;;;;;;;5134113;27;20428;-84
2021/04/24 10:29:09;;;;;;;4.00;1.50;;;;;;;;;;5117085;27;20039;-83
2021/04/24 10:31:36;;;;;;;5.38;1.85;;;;;;;;;;5137855;27;20130;-84
2021/04/24 10:34:04;;;;;;;2.15;1.13;;;;;;;;;;5134561;27;20436;-84
2021/04/24 10:36:30;;;;;;;6.15;1.42;;;;;;;;;;5117013;27;20430;-84
2021/04/24 10:38:56;;;;;;;5.00;1.40;;;;;;;;;;5117163;27;20071;-83
2021/04/24 10:41:27;;;;;;;5.35;1.60;;;;;;;;;;5116897;27;20036;-84
2021/04/24 10:43:56;;;;;;;4.20;1.52;;;;;;;;;;5130480;27;20118;-83
2021/04/24 10:46:26;;;;;;;5.97;1.67;;;;;;;;;;5134522;27;20038;-82
2021/04/24 10:49:12;;;;;;;2.55;1.27;;;;;;;;;;5116853;27;20041;-82
2021/04/24 10:51:57;;;;;;;3.33;1.60;;;;;;;;;;5134796;27;20045;-83
2021/04/24 10:54:23;;;;;;;2.90;1.23;;;;;;;;;;5134100;27;20039;-83
2021/04/24 10:56:49;;;;;;;3.67;1.60;;;;;;;;;;5133529;27;20039;-83
2021/04/24 10:59:19;;;;;;;3.60;1.42;;;;;;;;;;5134859;27;20397;-82
2021/04/24 11:02:04;;;;;;;3.58;1.27;;;;;;;;;;5133344;27;20058;-83
2021/04/24 11:04:40;;;;;;;3.78;1.35;;;;;;;;;;5133358;27;20482;-84
2021/04/24 11:07:16;;;;;;;6.20;1.77;;;;;;;;;;5116161;27;20117;-84
2021/04/24 11:09:42;;;;;;;7.80;1.88;;;;;;;;;;5133519;27;20035;-83
2021/04/24 11:12:14;;;;;;;3.65;1.40;;;;;;;;;;5133358;27;20046;-83
2021/04/24 11:14:40;;;;;;;3.20;1.40;;;;;;;;;;5133159;27;20031;-84
2021/04/24 11:17:07;;;;;;;3.13;1.30;;;;;;;;;;5133004;27;20043;-84
2021/04/24 11:19:44;;;;;;;5.05;1.73;;;;;;;;;;5133011;27;20107;-83
2021/04/24 11:22:29;;;;;;;6.35;1.40;;;;;;;;;;5134093;27;20091;-84
2021/04/24 11:24:55;;;;;;;6.30;1.52;;;;;;;;;;5134159;27;20591;-83
2021/04/24 11:27:29;;;;;;;2.67;1.40;;;;;;;;;;5132829;27;20168;-83
2021/04/24 11:29:55;;;;;;;6.05;1.90;;;;;;;;;;5115746;27;20106;-85
2021/04/24 11:32:21;;;;;;;4.78;1.60;;;;;;;;;;5132854;27;20122;-83
2021/04/24 11:34:50;;;;;;;5.45;1.58;;;;;;;;;;5115899;27;20119;-82
2021/04/24 11:37:26;;;;;;;3.80;1.40;;;;;;;;;;5115628;27;20063;-81
2021/04/24 11:40:05;;;;;;;5.55;2.17;;;;;;;;;;5133890;27;20050;-82
2021/04/24 11:42:32;;;;;;;5.68;1.60;;;;;;;;;;5133869;27;20088;-82
2021/04/24 11:44:58;;;;;;;5.13;1.35;;;;;;;;;;5133748;27;20084;-82
2021/04/24 11:47:45;;;;;;;5.82;1.83;;;;;;;;;;5133504;27;20478;-83
2021/04/24 11:50:11;;;;;;;4.13;1.55;;;;;;;;;;5132423;27;20039;-82
2021/04/24 11:52:37;;;;;;;6.03;1.42;;;;;;;;;;5133628;27;20482;-82
2021/04/24 11:55:04;;;;;;;2.63;1.23;;;;;;;;;;5133538;27;20036;-82
2021/04/24 11:57:30;;;;;;;3.08;1.60;;;;;;;;;;5132396;27;20180;-82
2021/04/24 11:59:56;;;;;;;5.65;1.63;;;;;;;;;;5133312;27;20202;-82
2021/04/24 12:02:33;;;;;;;4.38;1.77;;;;;;;;;;5133499;27;20474;-81
2021/04/24 12:05:06;;;;;;;3.55;1.40;;;;;;;;;;5133464;27;20486;-83
2021/04/24 12:07:38;;;;;;;3.83;1.27;;;;;;;;;;5132181;27;20431;-84
2021/04/24 12:10:05;;;;;;;3.17;1.50;;;;;;;;;;5132383;27;20126;-83
2021/04/24 12:12:37;;;;;;;6.32;1.83;;;;;;;;;;5132602;27;20037;-84
2021/04/24 12:15:03;;;;;;;6.55;1.92;;;;;;;;;;5132009;27;20130;-83
2021/04/24 12:17:29;;;;;;;9.77;2.20;;;;;;;;;;5133096;27;20046;-83
2021/04/24 12:19:55;;;;;;;4.05;1.50;;;;;;;;;;5132934;27;20058;-83
2021/04/24 12:22:22;;;;;;;6.78;2.13;;;;;;;;;;5131775;27;20070;-83
2021/04/24 12:25:04;;;;;;;7.85;2.45;;;;;;;;;;5132223;27;20415;-83
2021/04/24 12:27:35;;;;;;;8.15;2.85;;;;;;;;;;5114950;27;20035;-84
2021/04/24 12:30:18;;;;;;;6.22;1.90;;;;;;;;;;5132207;27;20039;-82
2021/04/24 12:32:45;;;;;;;6.53;1.80;;;;;;;;;;5115257;28;20062;-83
2021/04/24 12:35:19;;;;;;;4.40;1.80;;;;;;;;;;5114736;28;20039;-82
2021/04/24 12:37:45;;;;;;;7.57;2.15;;;;;;;;;;5131923;28;20046;-82
2021/04/24 12:40:12;;;;;;;8.45;2.20;;;;;;;;;;5131882;28;20393;-83
2021/04/24 12:42:39;;;;;;;6.18;2.00;;;;;;;;;;5131885;28;20031;-82
2021/04/24 12:45:10;;;;;;;4.80;1.70;;;;;;;;;;5114899;28;20043;-79
2021/04/24 12:47:36;;;;;;;3.88;1.55;;;;;;;;;;5131754;28;20371;-83
2021/04/24 12:50:10;;;;;;;3.33;1.73;;;;;;;;;;5114672;28;20454;-85
2021/04/24 12:52:43;;;;;;;6.28;1.77;;;;;;;;;;5132943;27;20035;-83
2021/04/24 12:55:09;;;;;;;6.20;2.30;;;;;;;;;;5131568;28;20397;-83
2021/04/24 12:57:36;;;;;;;3.00;1.45;;;;;;;;;;5132622;27;20496;-82
2021/04/24 13:00:02;;;;;;;6.78;1.52;;;;;;;;;;5132575;27;20031;-81
2021/04/24 13:02:38;;;;;;;4.00;1.70;;;;;;;;;;5132612;27;20035;-82
2021/04/24 13:05:05;;;;;;;8.50;2.20;;;;;;;;;;5132650;27;20531;-82
2021/04/24 13:07:31;;;;;;;4.25;1.70;;;;;;;;;;5131641;28;20065;-82
2021/04/24 13:09:57;;;;;;;7.28;2.00;;;;;;;;;;5129678;27;20211;-84
2021/04/24 13:12:23;;;;;;;4.03;2.00;;;;;;;;;;5131413;28;20389;-83
2021/04/24 13:14:49;;;;;;;4.72;2.10;;;;;;;;;;5131575;28;20457;-84
2021/04/24 13:17:17;;;;;;;3.60;2.10;;;;;;;;;;5132564;27;20062;-83
2021/04/24 13:19:56;;;;;;;7.43;2.72;;;;;;;;;;5131300;27;20043;-84
2021/04/24 13:22:31;;;;;;;3.97;1.73;;;;;;;;;;5131521;28;20039;-83
2021/04/24 13:24:57;;;;;;;5.38;1.63;;;;;;;;;;5132659;27;20031;-84
2021/04/24 13:27:24;;;;;;;3.75;1.65;;;;;;;;;;5114216;28;20039;-83
2021/04/24 13:29:50;;;;;;;4.70;1.88;;;;;;;;;;5131507;27;20122;-84
2021/04/24 13:32:16;;;;;;;4.40;2.08;;;;;;;;;;5132564;27;20042;-84
2021/04/24 13:34:42;;;;;;;6.28;2.20;;;;;;;;;;5135175;27;20035;-83
2021/04/24 13:37:28;;;;;;;4.97;1.90;;;;;;;;;;5135513;27;20055;-83
2021/04/24 13:40:01;;;;;;;8.30;2.50;;;;;;;;;;5134486;27;20091;-84
2021/04/24 13:42:37;;;;;;;10.52;2.00;;;;;;;;;;5134978;27;20045;-84
2021/04/24 13:45:12;;;;;;;5.13;2.00;;;;;;;;;;5135139;27;20123;-84
2021/04/24 13:47:38;;;;;;;6.82;2.05;;;;;;;;;;5134884;27;20050;-83
2021/04/24 13:50:04;;;;;;;5.35;1.73;;;;;;;;;;5134983;27;20043;-83
2021/04/24 13:52:30;;;;;;;4.43;1.40;;;;;;;;;;5134795;27;20062;-83
2021/04/24 13:54:56;;;;;;;3.67;1.52;;;;;;;;;;5134786;27;20042;-84
2021/04/24 13:57:23;;;;;;;6.40;2.30;;;;;;;;;;5135984;27;20031;-84
2021/04/24 13:59:49;;;;;;;3.38;1.60;;;;;;;;;;5117728;27;20073;-84
2021/04/24 14:02:15;;;;;;;3.88;1.52;;;;;;;;;;5135775;27;20122;-84
2021/04/24 14:04:41;;;;;;;4.63;1.60;;;;;;;;;;5135849;27;20042;-83
2021/04/24 14:07:08;;;;;;;6.53;1.88;;;;;;;;;;5135642;27;20084;-83
2021/04/24 14:09:34;;;;;;;3.88;2.00;;;;;;;;;;5135666;27;20031;-85
2021/04/24 14:12:00;;;;;;;2.95;1.40;;;;;;;;;;5135686;27;20091;-84
2021/04/24 14:14:26;;;;;;;4.03;2.03;;;;;;;;;;5117130;27;20242;-84
2021/04/24 14:16:56;;;;;;;5.78;2.40;;;;;;;;;;5129855;27;20036;-84
2021/04/24 14:19:22;;;;;;;5.13;1.80;;;;;;;;;;5115100;27;20046;-84
2021/04/24 14:21:51;;;;;;;3.42;1.30;;;;;;;;;;5113968;28;20066;-84
2021/04/24 14:24:18;;;;;;;3.28;1.80;;;;;;;;;;5114865;28;20036;-84
2021/04/24 14:26:44;;;;;;;4.90;1.85;;;;;;;;;;5113627;28;20050;-85
2021/04/24 14:29:10;;;;;;;3.70;1.40;;;;;;;;;;5096698;28;20047;-84
2021/04/24 14:31:36;;;;;;;3.42;1.80;;;;;;;;;;5113629;28;20043;-85
2021/04/24 14:34:02;;;;;;;6.88;1.90;;;;;;;;;;5113437;28;20043;-85
2021/04/24 14:36:28;;;;;;;3.25;1.50;;;;;;;;;;5113293;28;20047;-83
2021/04/24 14:38:54;;;;;;;3.20;1.52;;;;;;;;;;5096707;28;20395;-83